Time;durP1;ratioP1;P1;durP2;ratioP2;P2;SDS_P1;SDS_P2;PMS_P1;PMS_P2;Temp;Humidity;BMP_temperature;BMP_pressure;BME280_temperature;BME280_humidity;BME280_pressure;Samples;Min_cycle;Max_cycle;Signal;HPM_P1;HPM_P2
2022/12/14 00:04:51;;;;;;;27.02;16.07;;;;;;;-4.50;100.00;99159.61;1785696;78;23041;-67
2022/12/14 00:07:18;;;;;;;28.57;16.87;;;;;;;-4.42;100.00;99174.91;1730992;82;20975;-67
2022/12/14 00:09:45;;;;;;;24.50;15.23;;;;;;;-4.18;100.00;99165.74;1729374;82;21612;-67
2022/12/14 00:12:12;;;;;;;23.87;15.28;;;;;;;-3.99;100.00;99175.70;1725617;82;20983;-68
2022/12/14 00:14:38;;;;;;;;;;;;;;;-3.84;100.00;99168.47;1732522;82;21078;-68
2022/12/14 00:17:05;;;;;;;24.30;14.45;;;;;;;-3.71;100.00;99168.55;1745516;82;20098;-68
2022/12/14 00:19:31;;;;;;;20.68;12.25;;;;;;;-3.63;100.00;99164.42;1742152;81;21047;-68
2022/12/14 00:21:58;;;;;;;22.70;13.40;;;;;;;-3.49;100.00;99171.14;1742662;82;20955;-68
2022/12/14 00:24:24;;;;;;;23.83;12.13;;;;;;;-3.36;100.00;99176.53;1698663;82;21047;-68
2022/12/14 00:26:51;;;;;;;21.73;12.63;;;;;;;-3.28;100.00;99169.23;1736551;82;21488;-68
2022/12/14 00:29:17;;;;;;;21.75;12.85;;;;;;;-3.19;100.00;99177.34;1710788;82;21035;-68
2022/12/14 00:31:44;;;;;;;18.73;12.05;;;;;;;-3.13;100.00;99178.42;1741009;82;20963;-68
2022/12/14 00:34:10;;;;;;;17.77;11.22;;;;;;;-3.06;100.00;99184.59;1709606;82;21055;-68
2022/12/14 00:36:37;;;;;;;18.37;11.93;;;;;;;-2.99;100.00;99184.11;1731212;82;21497;-68
2022/12/14 00:39:03;;;;;;;;;;;;;;;-2.94;100.00;99184.86;1726478;82;21039;-68
2022/12/14 00:41:30;;;;;;;18.07;11.60;;;;;;;-2.87;100.00;99195.83;1731672;82;20112;-68
2022/12/14 00:43:56;;;;;;;14.98;10.18;;;;;;;-2.92;100.00;99192.95;1749532;82;21023;-68
2022/12/14 00:46:24;;;;;;;16.55;11.68;;;;;;;-2.86;100.00;99193.48;1745283;82;21593;-68
2022/12/14 00:48:50;;;;;;;14.38;10.25;;;;;;;-2.82;100.00;99196.57;1744901;82;21084;-68
2022/12/14 00:51:17;;;;;;;15.95;11.25;;;;;;;-2.78;100.00;99193.83;1724804;82;20944;-68
2022/12/14 00:53:44;;;;;;;18.00;11.48;;;;;;;-2.73;100.00;99200.19;1726886;82;21050;-68
2022/12/14 00:56:10;;;;;;;15.65;11.25;;;;;;;-2.70;100.00;99200.31;1729697;82;21445;-68
2022/12/14 00:58:37;;;;;;;17.77;11.57;;;;;;;-2.67;100.00;99195.41;1737979;82;20984;-68
2022/12/14 01:01:07;;;;;;;17.90;12.13;;;;;;;-2.65;100.00;99196.02;1730845;81;20971;-68
2022/12/14 01:03:34;;;;;;;17.65;12.00;;;;;;;-2.60;100.00;99204.75;1738050;81;21480;-67
2022/12/14 01:06:00;;;;;;;16.87;12.45;;;;;;;-2.60;100.00;99198.09;1732424;82;20999;-68
2022/12/14 01:08:33;;;;;;;18.27;12.58;;;;;;;-2.57;100.00;99199.02;1725724;82;21564;-68
2022/12/14 01:10:55;;;;;;;20.62;12.93;;;;;;;-2.55;100.00;99200.99;1713369;82;21529;-68
2022/12/14 01:13:22;;;;;;;16.82;11.88;;;;;;;-2.51;100.00;99199.54;1692772;82;21002;-68
2022/12/14 10:24:26;;;;;;;16.70;10.00;;;;;;;-3.61;100.00;99686.50;1800440;79;23480;-70
2022/12/14 10:26:54;;;;;;;11.90;6.95;;;;;;;-3.49;100.00;99691.38;1754284;81;21062;-70
2022/12/14 10:29:37;;;;;;;15.45;8.93;;;;;;;-3.25;100.00;99682.61;1723794;83;21022;-70
2022/12/14 10:32:24;;;;;;;10.78;7.87;;;;;;;-3.01;100.00;99688.97;1721355;83;21132;-70
2022/12/14 10:34:51;;;;;;;10.85;7.25;;;;;;;-2.75;100.00;99689.80;1740689;82;21055;-70
2022/12/14 10:37:35;;;;;;;10.45;6.83;;;;;;;-2.54;100.00;99693.83;1752974;82;21062;-70
2022/12/14 10:40:19;;;;;;;10.75;6.70;;;;;;;-2.31;100.00;99692.34;1753045;82;20968;-70
2022/12/14 10:43:11;;;;;;;14.03;8.85;;;;;;;-2.10;100.00;99685.67;1719566;83;21058;-70
2022/12/14 10:45:50;;;;;;;12.65;8.53;;;;;;;-1.92;100.00;99684.38;1695266;84;20991;-70
2022/12/14 10:55:41;;;;;;;6.67;4.12;;;;;;;-1.42;100.00;99677.45;1817394;79;22898;-70
2022/12/14 10:58:09;;;;;;;;;;;;;;;-1.47;100.00;99679.05;1773441;80;21113;-70
2022/12/14 11:00:36;;;;;;;8.60;5.08;;;;;;;-1.56;100.00;99668.52;1761839;81;20134;-70
2022/12/14 11:03:03;;;;;;;;;;;;;;;-1.71;100.00;99673.16;1763363;81;21675;-70
2022/12/14 11:05:53;;;;;;;8.88;5.30;;;;;;;-1.75;100.00;99677.22;1756615;81;20584;-70
2022/12/14 11:08:45;;;;;;;10.18;6.42;;;;;;;-1.85;100.00;99672.74;1762734;81;21374;-70
2022/12/14 11:11:19;;;;;;;8.03;5.22;;;;;;;-1.95;100.00;99672.25;1762712;81;21501;-70
2022/12/14 11:13:49;;;;;;;8.55;5.28;;;;;;;-2.02;100.00;99679.38;1761751;81;21589;-70
2022/12/14 11:16:36;;;;;;;12.13;6.25;;;;;;;-2.06;100.00;99676.77;1762976;81;21038;-70
2022/12/14 11:19:06;;;;;;;11.08;6.35;;;;;;;-2.11;100.00;99677.34;1762749;80;21069;-71
2022/12/14 11:21:37;;;;;;;8.75;5.40;;;;;;;-2.16;100.00;99670.94;1762431;81;21038;-70
2022/12/14 11:24:04;;;;;;;9.10;4.83;;;;;;;-2.19;100.00;99661.97;1762389;81;21463;-70
2022/12/14 11:26:39;;;;;;;9.95;6.28;;;;;;;-2.12;100.00;99668.19;1732873;81;21003;-70
2022/12/14 11:29:15;;;;;;;10.43;6.62;;;;;;;-2.01;100.00;99663.66;1762413;81;21054;-71
2022/12/14 11:31:46;;;;;;;8.53;4.90;;;;;;;-1.86;100.00;99667.59;1751437;81;21044;-71
2022/12/14 11:34:27;;;;;;;8.15;4.85;;;;;;;-1.74;100.00;99671.38;1730832;83;21058;-70
2022/12/14 11:36:54;;;;;;;7.47;4.47;;;;;;;-1.62;100.00;99673.81;1730813;83;21149;-69
2022/12/14 11:39:22;;;;;;;;;;;;;;;-1.50;100.00;99665.59;1732821;83;21152;-70
2022/12/14 11:42:03;;;;;;;7.90;5.25;;;;;;;-1.40;100.00;99672.73;1737074;81;20560;-70
2022/12/14 11:44:33;;;;;;;8.60;5.10;;;;;;;-1.37;100.00;99677.67;1763360;81;21030;-70
2022/12/14 11:47:08;;;;;;;8.35;5.37;;;;;;;-1.26;100.00;99686.98;1763594;81;21026;-70
2022/12/14 11:49:43;;;;;;;11.25;7.75;;;;;;;-1.22;100.00;99685.58;1757913;81;21102;-71
2022/12/14 11:52:19;;;;;;;13.20;7.85;;;;;;;-1.21;100.00;99686.73;1735936;81;21027;-70
2022/12/14 11:54:57;;;;;;;6.58;4.53;;;;;;;-1.18;100.00;99693.52;1724020;83;21047;-71
2022/12/14 11:57:33;;;;;;;15.70;10.00;;;;;;;-1.19;100.00;99686.51;1717675;83;21078;-71
2022/12/14 12:00:03;;;;;;;13.62;7.85;;;;;;;-1.20;100.00;99690.20;1717579;83;21125;-71
2022/12/14 12:02:39;;;;;;;14.23;7.97;;;;;;;-1.19;100.00;99696.69;1744467;82;21593;-70
2022/12/14 12:05:20;;;;;;;15.05;8.30;;;;;;;-1.22;100.00;99693.59;1727989;82;21047;-71
2022/12/14 12:07:56;;;;;;;14.40;8.68;;;;;;;-1.30;100.00;99689.73;1748792;82;21144;-71
2022/12/14 12:10:46;;;;;;;9.43;6.42;;;;;;;-1.40;100.00;99691.42;1746773;82;21090;-70
2022/12/14 12:13:24;;;;;;;8.60;5.05;;;;;;;-1.50;100.00;99696.30;1747664;82;21094;-70
2022/12/14 12:15:58;;;;;;;13.95;7.80;;;;;;;-1.60;100.00;99703.32;1748070;82;21079;-70
2022/12/14 12:25:37;;;;;;;14.43;8.20;;;;;;;-1.81;100.00;99707.36;1800025;79;22969;-70
2022/12/14 12:28:16;;;;;;;;;;;;;;;-1.92;100.00;99703.87;1756672;81;21098;-70
2022/12/14 12:30:48;;;;;;;13.03;7.90;;;;;;;-1.92;100.00;99709.72;1750001;82;20126;-70
2022/12/14 12:33:44;;;;;;;8.93;5.60;;;;;;;-1.99;100.00;99715.00;1751116;82;21089;-70
2022/12/14 12:36:11;;;;;;;13.05;8.00;;;;;;;-1.97;100.00;99719.63;1750636;81;21062;-70
2022/12/14 12:38:52;;;;;;;14.10;7.55;;;;;;;-2.03;100.00;99717.23;1751232;82;21090;-70
2022/12/14 12:41:52;;;;;;;7.53;5.17;;;;;;;-2.06;100.00;99720.78;1751344;82;21125;-70
2022/12/14 12:44:30;;;;;;;25.12;12.47;;;;;;;-2.07;100.00;99720.45;1751286;82;21042;-69
2022/12/14 12:47:29;;;;;;;16.02;8.40;;;;;;;-2.11;100.00;99724.52;1751555;82;21063;-70
2022/12/14 12:50:00;;;;;;;22.95;16.48;;;;;;;-2.16;100.00;99727.75;1752633;82;21092;-70
2022/12/14 12:52:33;;;;;;;17.67;12.53;;;;;;;-2.21;100.00;99726.17;1722965;83;21553;-70
2022/12/14 12:55:15;;;;;;;17.42;11.43;;;;;;;-2.21;100.00;99731.51;1722752;83;21042;-70
2022/12/14 12:57:48;;;;;;;21.48;17.90;;;;;;;-2.22;100.00;99741.85;1723215;83;21919;-71
2022/12/14 13:00:18;;;;;;;9.68;6.72;;;;;;;-2.25;100.00;99750.73;1722085;82;21031;-71
2022/12/14 13:02:48;;;;;;;11.57;9.00;;;;;;;-2.28;100.00;99747.95;1716699;83;21476;-70
2022/12/14 13:05:19;;;;;;;10.88;6.92;;;;;;;-2.28;100.00;99754.61;1751914;82;21561;-70
2022/12/14 13:07:56;;;;;;;8.63;5.05;;;;;;;-2.29;100.00;99744.95;1752011;82;21031;-71
2022/12/14 13:10:26;;;;;;;11.80;6.67;;;;;;;-2.29;100.00;99748.95;1751152;82;21568;-71
2022/12/14 13:13:02;;;;;;;9.63;6.83;;;;;;;-2.31;100.00;99759.00;1750259;82;21055;-70
2022/12/14 13:15:47;;;;;;;9.48;6.55;;;;;;;-2.33;100.00;99757.51;1740845;82;21078;-70
2022/12/14 13:18:33;;;;;;;10.03;5.92;;;;;;;-2.35;100.00;99756.88;1752867;81;21043;-70
2022/12/14 13:21:04;;;;;;;10.00;5.40;;;;;;;-2.37;100.00;99761.59;1751195;82;21490;-71
2022/12/14 13:26:50;;;;;;;10.15;6.58;;;;;;;-2.36;100.00;99759.22;1883021;76;23300;-70
2022/12/14 13:29:34;;;;;;;12.60;7.37;;;;;;;-2.40;100.00;99773.94;1826617;78;21049;-70
2022/12/14 13:32:14;;;;;;;11.45;6.58;;;;;;;-2.42;100.00;99775.98;1825584;78;21049;-70
2022/12/14 13:35:01;;;;;;;9.45;6.30;;;;;;;-2.47;100.00;99771.20;1826359;78;21077;-70
2022/12/14 13:38:00;;;;;;;9.68;5.65;;;;;;;-2.53;100.00;99780.78;1826281;78;21626;-71
2022/12/14 13:40:41;;;;;;;7.15;4.90;;;;;;;-2.57;100.00;99777.34;1783416;78;21108;-71
2022/12/14 13:43:31;;;;;;;9.63;4.95;;;;;;;-2.68;100.00;99773.31;1820070;78;21089;-71
2022/12/14 13:46:12;;;;;;;38.30;24.80;;;;;;;-2.79;100.00;99776.44;1766711;79;21053;-71
2022/12/14 13:48:40;;;;;;;36.88;24.25;;;;;;;-2.91;100.00;99783.27;1814858;78;21128;-71
2022/12/14 13:51:08;;;;;;;29.48;20.12;;;;;;;-3.01;100.00;99790.17;1823188;78;21045;-71
2022/12/14 13:53:41;;;;;;;24.70;17.17;;;;;;;-3.03;100.00;99787.38;1827301;78;21066;-71
2022/12/14 13:56:08;;;;;;;25.25;17.23;;;;;;;-3.06;100.00;99794.41;1827067;78;21568;-71
2022/12/14 13:58:40;;;;;;;18.67;11.18;;;;;;;-3.14;100.00;99784.67;1827137;78;21057;-71
2022/12/14 14:01:41;;;;;;;21.95;13.30;;;;;;;-3.11;100.00;99790.13;1825151;78;21360;-71
2022/12/14 14:04:18;;;;;;;18.77;12.55;;;;;;;-3.16;100.00;99798.69;1827056;78;21485;-71
2022/12/14 14:06:49;;;;;;;44.83;26.02;;;;;;;-3.20;100.00;99800.55;1827281;78;21531;-71
2022/12/14 14:09:36;;;;;;;97.95;35.70;;;;;;;-3.25;100.00;99798.92;1826176;78;21014;-71
2022/12/14 14:12:29;;;;;;;579.83;198.77;;;;;;;-3.31;100.00;99805.81;1824821;78;21069;-71
2022/12/14 14:15:17;;;;;;;453.48;145.02;;;;;;;-3.38;100.00;99804.88;1828338;78;21732;-70
2022/12/14 14:17:45;;;;;;;255.55;83.17;;;;;;;-3.47;100.00;99809.14;1801068;78;21042;-70
2022/12/14 14:20:35;;;;;;;167.47;57.78;;;;;;;-3.53;100.00;99809.34;1827518;78;21014;-71
2022/12/14 14:23:20;;;;;;;77.85;28.98;;;;;;;-3.55;100.00;99811.36;1828463;78;21068;-71
2022/12/14 14:26:21;;;;;;;97.53;38.63;;;;;;;-3.60;100.00;99810.56;1828092;78;20987;-71
2022/12/14 14:29:09;;;;;;;86.05;33.85;;;;;;;-3.66;100.00;99808.63;1823980;78;21022;-70
2022/12/14 14:31:57;;;;;;;64.80;28.75;;;;;;;-3.70;100.00;99816.64;1826816;78;21006;-70
2022/12/14 14:34:36;;;;;;;35.38;19.17;;;;;;;-3.71;100.00;99822.12;1826920;78;21143;-70
2022/12/14 19:48:58;;;;;;;65.97;37.60;;;;;;;-6.00;100.00;99758.30;1792273;78;22621;-71
2022/12/14 19:51:25;;;;;;;56.68;31.50;;;;;;;-5.83;100.00;99771.84;1739605;81;21087;-72
2022/12/14 19:53:53;;;;;;;56.83;31.57;;;;;;;-5.64;100.00;99769.70;1772627;80;21492;-72
2022/12/14 19:56:21;;;;;;;54.03;32.08;;;;;;;-5.50;100.00;99773.48;1746165;79;21103;-71
2022/12/14 19:58:48;;;;;;;50.15;29.50;;;;;;;-5.39;100.00;99765.68;1747865;81;21606;-72
2022/12/14 20:01:16;;;;;;;56.60;33.08;;;;;;;-5.28;100.00;99767.98;1708823;80;20998;-73
2022/12/14 20:03:43;;;;;;;48.52;29.27;;;;;;;-5.16;100.00;99769.26;1771226;80;21078;-72
2022/12/14 20:06:09;;;;;;;42.35;24.95;;;;;;;-5.05;100.00;99771.05;1757758;80;21057;-73
2022/12/14 20:08:36;;;;;;;;;;;;;;;-4.93;100.00;99782.63;1773501;80;21050;-74
2022/12/14 20:19:59;;;;;;;46.50;28.32;;;;;;;-4.65;100.00;99769.23;1811472;78;23420;-70
2022/12/14 20:22:26;;;;;;;51.18;29.92;;;;;;;-4.66;100.00;99776.38;1765316;80;21744;-69
2022/12/14 20:24:53;;;;;;;44.45;27.80;;;;;;;-4.62;100.00;99780.34;1750071;81;21082;-68
2022/12/14 20:27:20;;;;;;;47.10;28.40;;;;;;;-4.56;100.00;99782.79;1741731;81;21148;-69
2022/12/14 20:29:47;;;;;;;48.65;29.02;;;;;;;-4.54;100.00;99774.16;1753580;80;21050;-68
2022/12/14 20:32:13;;;;;;;52.93;31.07;;;;;;;-4.55;100.00;99785.28;1755602;80;21032;-68
2022/12/14 20:34:41;;;;;;;48.75;28.60;;;;;;;-4.49;100.00;99793.55;1759297;80;21041;-68
2022/12/14 20:37:08;;;;;;;48.15;29.00;;;;;;;-4.47;100.00;99783.59;1751931;81;22002;-68
2022/12/14 20:39:35;;;;;;;48.50;29.42;;;;;;;-4.45;100.00;99778.42;1756155;81;21488;-69
2022/12/14 20:42:01;;;;;;;46.63;28.92;;;;;;;-4.42;100.00;99773.25;1743075;81;21125;-69
2022/12/14 20:44:28;;;;;;;49.15;28.65;;;;;;;-4.39;100.00;99783.02;1695639;83;21109;-69
2022/12/14 20:46:55;;;;;;;50.10;29.90;;;;;;;-4.34;100.00;99775.86;1690940;85;21138;-68
2022/12/14 20:49:28;;;;;;;49.23;29.20;;;;;;;-4.32;100.00;99774.67;1663026;84;21054;-70
2022/12/14 20:51:50;;;;;;;43.80;28.57;;;;;;;-4.30;100.00;99778.50;1674829;84;21616;-68
2022/12/14 20:54:18;;;;;;;45.03;27.37;;;;;;;-4.29;100.00;99791.62;1678178;85;21074;-69
2022/12/14 20:56:44;;;;;;;45.20;26.62;;;;;;;-4.25;100.00;99793.44;1683554;83;20991;-68
2022/12/14 20:59:11;;;;;;;42.05;27.00;;;;;;;-4.23;100.00;99791.41;1698147;83;21007;-68
2022/12/14 21:01:38;;;;;;;42.23;25.27;;;;;;;-4.22;100.00;99791.25;1706437;83;21009;-68
2022/12/14 21:04:05;;;;;;;41.35;26.17;;;;;;;-4.20;100.00;99769.80;1706607;84;21065;-68
2022/12/14 21:06:32;;;;;;;46.95;27.50;;;;;;;-4.18;100.00;99788.54;1685160;84;20999;-68
2022/12/14 21:09:09;;;;;;;41.42;26.48;;;;;;;-4.19;100.00;99806.02;1681357;84;21525;-68
2022/12/14 21:14:42;;;;;;;44.20;27.13;;;;;;;-4.17;100.00;99805.33;1685582;84;21559;-69
2022/12/14 21:17:09;;;;;;;43.05;26.27;;;;;;;-4.14;100.00;99804.47;1685267;84;21094;-71
2022/12/14 21:19:35;;;;;;;41.40;25.88;;;;;;;-4.12;100.00;99787.86;1688393;84;21098;-69
2022/12/14 21:22:03;;;;;;;40.12;25.05;;;;;;;-4.07;100.00;99774.02;1685285;85;21083;-68
2022/12/14 21:24:30;;;;;;;38.50;25.35;;;;;;;-4.04;100.00;99765.71;1686083;85;21047;-70
2022/12/14 21:26:57;;;;;;;38.75;23.67;;;;;;;-4.02;100.00;99751.72;1668803;83;21141;-68
2022/12/14 21:29:23;;;;;;;39.23;24.60;;;;;;;-3.99;100.00;99734.58;1674421;84;21504;-68
2022/12/14 21:31:50;;;;;;;39.98;24.75;;;;;;;-3.98;100.00;99733.58;1692013;84;21051;-67
2022/12/14 21:34:19;;;;;;;37.48;22.70;;;;;;;-3.97;100.00;99725.44;1667187;85;21087;-67
2022/12/14 21:36:45;;;;;;;38.25;24.15;;;;;;;-3.96;100.00;99725.73;1682449;85;21031;-68
2022/12/14 21:39:13;;;;;;;35.52;23.90;;;;;;;-3.96;100.00;99720.42;1674862;84;21430;-68
2022/12/14 21:44:24;;;;;;;40.55;25.90;;;;;;;-3.92;100.00;99716.40;1664894;85;21090;-68
2022/12/14 21:46:50;;;;;;;38.90;23.75;;;;;;;-3.90;100.00;99712.24;1680455;85;20996;-68
2022/12/14 21:49:17;;;;;;;39.15;24.63;;;;;;;-3.89;100.00;99709.39;1729687;82;21363;-68
2022/12/14 21:51:43;;;;;;;37.10;24.43;;;;;;;-3.88;100.00;99707.56;1734783;82;21027;-68
2022/12/14 21:54:12;;;;;;;;;;;;;;;-3.87;100.00;99696.75;1747424;82;21537;-68
2022/12/14 21:59:27;;;;;;;42.00;24.67;;;;;;;-3.90;100.00;99685.16;1733654;82;21049;-68
2022/12/14 22:01:54;;;;;;;34.90;21.80;;;;;;;-3.87;100.00;99694.59;1736363;82;21049;-68
2022/12/14 22:04:21;;;;;;;39.48;22.93;;;;;;;-3.88;100.00;99696.42;1748130;81;21062;-68
2022/12/14 22:06:48;;;;;;;;;;;;;;;-3.85;100.00;99692.56;1708957;84;22169;-68
2022/12/14 22:09:16;;;;;;;30.75;19.85;;;;;;;-3.81;100.00;99694.69;1664736;85;20134;-68
2022/12/14 22:11:43;;;;;;;29.52;18.37;;;;;;;-3.80;100.00;99684.38;1710524;82;21031;-68
2022/12/14 22:14:13;;;;;;;32.50;19.37;;;;;;;-3.75;100.00;99675.34;1709358;83;21030;-68
2022/12/14 22:16:39;;;;;;;31.05;18.20;;;;;;;-3.70;100.00;99684.95;1736069;81;21024;-68
2022/12/14 22:19:25;;;;;;;27.22;18.27;;;;;;;-3.64;100.00;99682.05;1726810;82;21120;-68
2022/12/14 22:21:51;;;;;;;;;;;;;;;-3.60;100.00;99680.18;1749518;81;21085;-68
2022/12/14 22:24:19;;;;;;;29.02;17.95;;;;;;;-3.54;100.00;99679.44;1737717;81;20130;-69
2022/12/14 22:26:46;;;;;;;28.00;17.75;;;;;;;-3.55;100.00;99687.13;1748215;81;20981;-68
2022/12/14 22:29:13;;;;;;;28.50;18.17;;;;;;;-3.52;100.00;99684.09;1753844;81;20974;-68
2022/12/14 22:31:41;;;;;;;28.52;18.48;;;;;;;-3.46;100.00;99678.53;1754882;81;21438;-68
2022/12/14 22:34:07;;;;;;;;;;;;;;;-3.35;100.00;99682.07;1713891;82;20996;-68
2022/12/14 22:36:34;;;;;;;25.20;16.70;;;;;;;-3.29;100.00;99681.33;1686212;82;20122;-69
2022/12/14 22:39:01;;;;;;;25.85;17.15;;;;;;;-3.28;100.00;99657.70;1729691;82;21489;-68
2022/12/14 22:41:27;;;;;;;;;;;;;;;-3.23;100.00;99653.16;1751589;81;21526;-68
2022/12/14 22:43:55;;;;;;;25.68;16.67;;;;;;;-3.21;100.00;99655.95;1734062;81;20099;-68
2022/12/14 22:46:22;;;;;;;25.65;15.72;;;;;;;-3.21;100.00;99639.97;1742853;81;20967;-67
2022/12/14 22:48:49;;;;;;;24.05;16.12;;;;;;;-3.18;100.00;99633.44;1733484;80;21515;-67
2022/12/14 22:51:15;;;;;;;;;;;;;;;-3.13;100.00;99629.23;1742866;81;21034;-68
2022/12/14 22:53:42;;;;;;;23.67;15.15;;;;;;;-3.11;100.00;99619.20;1737456;81;20145;-70
2022/12/14 22:56:29;;;;;;;21.37;14.43;;;;;;;-3.17;100.00;99615.13;1746904;81;21477;-68
2022/12/14 22:59:06;;;;;;;21.95;14.98;;;;;;;-3.12;100.00;99620.73;1727739;81;21129;-68
2022/12/14 23:01:33;;;;;;;20.60;14.35;;;;;;;-3.11;100.00;99611.21;1739345;81;21027;-68
2022/12/14 23:04:02;;;;;;;21.42;14.40;;;;;;;-3.08;100.00;99601.52;1733460;81;21066;-68
2022/12/14 23:06:29;;;;;;;21.40;14.38;;;;;;;-3.04;100.00;99586.81;1725077;81;21054;-69
